createdAt,value
2023-02-17T00:00:07.124Z,75.75
2023-02-17T00:01:12.682Z,75.87
2023-02-17T00:02:13.960Z,75.79
2023-02-17T00:03:15.224Z,75.16
2023-02-17T00:04:16.477Z,75.35
2023-02-17T00:05:17.814Z,74.83
2023-02-17T00:06:20.509Z,74.83
2023-02-17T00:07:21.721Z,75.13
2023-02-17T00:08:23.078Z,74.95
2023-02-17T00:09:24.402Z,74.72
2023-02-17T00:10:25.650Z,74.72
2023-02-17T00:11:27.277Z,74.20
2023-02-17T00:12:28.550Z,74.54
2023-02-17T00:13:30.265Z,73.86
2023-02-17T00:14:31.569Z,74.12
2023-02-17T00:15:32.906Z,73.86
2023-02-17T00:16:34.314Z,73.91
2023-02-17T00:17:35.636Z,74.29
2023-02-17T00:18:36.987Z,74.41
2023-02-17T00:19:38.476Z,74.35
2023-02-17T00:20:39.863Z,74.43
2023-02-17T00:21:41.247Z,74.83
2023-02-17T00:22:42.454Z,74.50
2023-02-17T00:23:43.849Z,75.30
2023-02-17T00:24:45.172Z,74.90
2023-02-17T00:25:46.472Z,75.39
2023-02-17T00:26:47.846Z,75.68
2023-02-17T00:27:49.070Z,75.50
2023-02-17T00:28:50.836Z,75.46
2023-02-17T00:29:52.360Z,75.86
2023-02-17T00:30:53.617Z,75.64
2023-02-17T00:31:55.516Z,75.77
2023-02-17T00:32:57.690Z,75.86
2023-02-17T00:33:58.961Z,75.17
2023-02-17T00:35:00.990Z,75.13
2023-02-17T00:36:03.578Z,74.61
2023-02-17T00:37:05.411Z,74.51
2023-02-17T00:38:07.332Z,74.33
2023-02-17T00:39:08.682Z,74.03
2023-02-17T00:40:10.073Z,74.20
2023-02-17T00:41:11.360Z,73.63
2023-02-17T00:42:12.618Z,73.89
2023-02-17T00:43:13.891Z,74.23
2023-02-17T00:44:16.798Z,74.42
2023-02-17T00:45:18.124Z,74.48
2023-02-17T00:46:19.486Z,74.76
2023-02-17T00:47:20.784Z,74.71
2023-02-17T00:48:22.733Z,74.80
2023-02-17T00:49:25.739Z,73.33
2023-02-17T00:50:27.032Z,72.90
2023-02-17T00:51:28.669Z,73.20
2023-02-17T00:52:30.964Z,72.77
2023-02-17T00:53:32.408Z,72.93
2023-02-17T00:54:34.711Z,72.91
2023-02-17T00:55:36.611Z,73.37
2023-02-17T00:56:37.841Z,73.43
2023-02-17T00:57:39.267Z,74.00
2023-02-17T00:58:41.289Z,73.71
2023-02-17T00:59:42.538Z,73.53
2023-02-17T01:00:43.826Z,73.61
2023-02-17T01:01:45.173Z,73.65
2023-02-17T01:02:46.489Z,73.69
2023-02-17T01:03:47.839Z,73.61
2023-02-17T01:04:49.210Z,73.29
2023-02-17T01:05:50.686Z,72.73
2023-02-17T01:06:51.957Z,73.50
2023-02-17T01:07:53.322Z,73.01
2023-02-17T01:08:54.708Z,72.73
2023-02-17T01:09:56.113Z,72.13
2023-02-17T01:10:57.380Z,72.46
2023-02-17T01:11:58.857Z,72.59
2023-02-17T01:13:00.147Z,72.78
2023-02-17T01:14:02.366Z,72.45
2023-02-17T01:15:03.714Z,72.65
2023-02-17T01:16:05.317Z,72.41
2023-02-17T01:17:06.709Z,72.52
2023-02-17T01:18:07.967Z,73.04
2023-02-17T01:19:10.937Z,71.77
2023-02-17T01:20:12.285Z,72.47
2023-02-17T01:21:20.710Z,72.47
2023-02-17T01:22:22.092Z,72.94
2023-02-17T01:23:23.304Z,73.42
2023-02-17T01:24:24.652Z,73.06
2023-02-17T01:25:25.960Z,73.49
2023-02-17T01:26:28.882Z,73.42
2023-02-17T01:27:30.229Z,73.32
2023-02-17T01:28:31.570Z,73.07
2023-02-17T01:29:32.916Z,73.17
2023-02-17T01:30:34.458Z,73.00
2023-02-17T01:31:35.893Z,73.12
2023-02-17T01:32:37.271Z,73.09
2023-02-17T01:33:39.370Z,73.13
2023-02-17T01:34:43.075Z,72.66
2023-02-17T01:35:44.408Z,72.80
2023-02-17T01:36:46.873Z,72.85
2023-02-17T01:37:48.183Z,73.10
2023-02-17T01:38:50.971Z,72.97
2023-02-17T01:39:52.759Z,73.63
2023-02-17T01:40:54.146Z,73.77
2023-02-17T01:41:56.236Z,73.83
2023-02-17T01:42:57.869Z,73.49
2023-02-17T01:44:13.684Z,73.46
2023-02-17T01:45:14.952Z,73.40
2023-02-17T01:46:16.306Z,72.92
2023-02-17T01:47:17.652Z,73.06
2023-02-17T01:48:21.109Z,73.44
2023-02-17T01:49:51.792Z,74.00
2023-02-17T01:50:55.280Z,73.85
2023-02-17T01:52:08.529Z,74.02
2023-02-17T01:53:12.213Z,73.88
2023-02-17T01:54:18.294Z,74.53
2023-02-17T01:55:20.898Z,74.51
2023-02-17T01:56:23.341Z,74.47
2023-02-17T01:57:27.098Z,74.45
2023-02-17T01:58:29.081Z,74.70
2023-02-17T01:59:30.763Z,74.62
2023-02-17T02:00:33.639Z,74.31
2023-02-17T02:01:35.217Z,74.48
2023-02-17T02:02:36.906Z,74.76
2023-02-17T02:03:38.790Z,74.65
2023-02-17T02:04:42.109Z,74.40
2023-02-17T02:05:43.577Z,74.67
2023-02-17T02:06:45.181Z,74.89
2023-02-17T02:07:47.349Z,74.31
2023-02-17T02:08:52.761Z,74.70
2023-02-17T02:09:54.993Z,74.20
2023-02-17T02:10:56.351Z,74.77
2023-02-17T02:11:58.157Z,74.65
2023-02-17T02:12:59.473Z,74.69
2023-02-17T02:14:01.558Z,74.17
2023-02-17T02:15:07.574Z,74.43
2023-02-17T02:16:17.865Z,74.07
2023-02-17T02:17:28.473Z,74.34
2023-02-17T02:18:41.461Z,74.42
2023-02-17T02:20:01.598Z,74.82
2023-02-17T02:21:14.251Z,75.11
2023-02-17T02:22:27.432Z,75.20
2023-02-17T02:23:47.732Z,75.42
2023-02-17T02:24:54.758Z,75.18
2023-02-17T02:26:14.516Z,75.33
2023-02-17T02:27:28.052Z,75.35
2023-02-17T02:28:29.355Z,75.86
2023-02-17T02:29:44.529Z,75.72
2023-02-17T02:30:46.033Z,75.68
2023-02-17T02:31:59.651Z,75.84
2023-02-17T02:33:07.492Z,75.27
2023-02-17T02:34:12.421Z,75.10
2023-02-17T02:35:20.782Z,75.85
2023-02-17T02:36:32.802Z,75.69
2023-02-17T02:37:41.061Z,75.87
2023-02-17T02:38:54.102Z,75.68
2023-02-17T02:39:57.004Z,75.56
2023-02-17T02:41:03.401Z,75.66
2023-02-17T02:42:12.797Z,75.74
2023-02-17T02:43:15.794Z,75.16
2023-02-17T02:44:18.293Z,75.47
2023-02-17T02:45:19.602Z,75.59
2023-02-17T02:46:20.995Z,75.31
2023-02-17T02:47:40.972Z,75.68
2023-02-17T02:48:42.396Z,75.60
2023-02-17T02:49:44.118Z,76.06
2023-02-17T02:50:55.623Z,75.76
2023-02-17T02:52:06.659Z,76.08
2023-02-17T02:53:29.478Z,75.91
2023-02-17T02:54:52.579Z,75.77
2023-02-17T02:56:09.518Z,75.56
2023-02-17T02:57:16.259Z,75.47
2023-02-17T02:58:20.684Z,75.34
2023-02-17T02:59:22.001Z,75.63
2023-02-17T03:00:45.724Z,75.12
2023-02-17T03:01:59.783Z,75.08
2023-02-17T03:03:08.126Z,74.76
2023-02-17T03:04:14.586Z,74.55
2023-02-17T03:05:23.343Z,74.32
2023-02-17T03:06:31.556Z,73.95
2023-02-17T03:07:39.890Z,74.32
2023-02-17T03:08:48.534Z,74.14
2023-02-17T03:09:51.065Z,73.65
2023-02-17T03:10:53.489Z,73.30
2023-02-17T03:11:56.055Z,73.83
2023-02-17T03:12:57.922Z,73.73
2023-02-17T03:14:03.410Z,73.62
2023-02-17T03:15:08.979Z,73.56
2023-02-17T03:16:10.309Z,73.74
2023-02-17T03:17:11.572Z,74.25
2023-02-17T03:18:13.161Z,74.30
2023-02-17T03:19:16.942Z,73.95
2023-02-17T03:20:18.315Z,73.64
2023-02-17T03:21:20.737Z,73.57
2023-02-17T03:22:25.410Z,73.44
2023-02-17T03:23:26.681Z,73.68
2023-02-17T03:24:27.987Z,72.83
2023-02-17T03:25:29.296Z,72.66
2023-02-17T03:26:30.609Z,73.24
2023-02-17T03:27:31.977Z,73.03
2023-02-17T03:28:33.295Z,72.45
2023-02-17T03:29:34.574Z,72.50
2023-02-17T03:30:36.117Z,72.77
2023-02-17T03:31:37.587Z,72.33
2023-02-17T03:32:38.996Z,72.72
2023-02-17T03:33:40.269Z,72.80
2023-02-17T03:34:41.478Z,72.75
2023-02-17T03:35:42.681Z,72.52
2023-02-17T03:36:44.029Z,72.29
2023-02-17T03:37:45.289Z,72.59
2023-02-17T03:38:46.539Z,72.77
2023-02-17T03:39:47.789Z,72.68
2023-02-17T03:40:49.317Z,72.47
2023-02-17T03:41:50.545Z,72.84
2023-02-17T03:42:51.822Z,73.06
2023-02-17T03:43:53.092Z,72.82
2023-02-17T03:44:54.342Z,73.29
2023-02-17T03:45:55.611Z,72.89
2023-02-17T03:46:56.882Z,72.61
2023-02-17T03:47:58.121Z,72.76
2023-02-17T03:48:59.525Z,72.70
2023-02-17T03:50:00.768Z,72.88
2023-02-17T03:51:10.081Z,72.87
2023-02-17T03:52:11.280Z,73.00
2023-02-17T03:53:12.533Z,72.70
2023-02-17T03:54:14.082Z,72.88
2023-02-17T03:55:15.376Z,73.15
2023-02-17T03:56:17.079Z,73.16
2023-02-17T03:57:18.361Z,73.18
2023-02-17T03:58:19.640Z,72.77
2023-02-17T03:59:21.169Z,72.68
2023-02-17T04:00:22.467Z,72.81
2023-02-17T04:01:25.420Z,73.15
2023-02-17T04:02:26.766Z,73.25
2023-02-17T04:03:28.086Z,73.22
2023-02-17T04:04:29.399Z,73.16
2023-02-17T04:05:30.703Z,73.29
2023-02-17T04:06:31.972Z,72.91
2023-02-17T04:07:33.332Z,73.14
2023-02-17T04:08:34.591Z,73.16
2023-02-17T04:09:35.929Z,73.41
2023-02-17T04:10:37.161Z,74.04
2023-02-17T04:11:38.396Z,73.67
2023-02-17T04:12:39.665Z,73.37
2023-02-17T04:13:40.961Z,73.53
2023-02-17T04:14:42.223Z,73.15
2023-02-17T04:15:43.494Z,72.80
2023-02-17T04:16:44.723Z,73.18
2023-02-17T04:17:45.988Z,73.33
2023-02-17T04:18:47.218Z,73.06
2023-02-17T04:19:48.437Z,73.18
2023-02-17T04:20:50.636Z,72.98
2023-02-17T04:21:51.922Z,73.42
2023-02-17T04:22:53.142Z,73.47
2023-02-17T04:23:54.401Z,73.55
2023-02-17T04:24:55.728Z,73.29
2023-02-17T04:25:57.016Z,73.65
2023-02-17T04:26:58.235Z,73.67
2023-02-17T04:27:59.471Z,73.26
2023-02-17T04:29:02.950Z,73.47
2023-02-17T04:30:05.083Z,73.38
2023-02-17T04:31:06.804Z,73.70
2023-02-17T04:32:08.147Z,73.80
2023-02-17T04:33:09.442Z,73.52
2023-02-17T04:34:10.685Z,73.50
2023-02-17T04:35:11.969Z,73.82
2023-02-17T04:36:13.312Z,73.77
2023-02-17T04:37:14.599Z,73.88
2023-02-17T04:38:15.977Z,73.79
2023-02-17T04:39:17.198Z,74.02
2023-02-17T04:40:18.630Z,73.36
2023-02-17T04:41:20.300Z,73.43
2023-02-17T04:42:21.559Z,73.81
2023-02-17T04:43:23.244Z,73.91
2023-02-17T04:44:24.540Z,73.94
2023-02-17T04:45:25.764Z,73.57
2023-02-17T04:46:27.122Z,73.59
2023-02-17T04:47:28.449Z,74.63
2023-02-17T04:48:29.766Z,74.30
2023-02-17T04:49:31.037Z,74.14
2023-02-17T04:50:32.298Z,74.21
2023-02-17T04:51:33.565Z,74.68
2023-02-17T04:52:34.968Z,74.97
2023-02-17T04:53:36.226Z,74.54
2023-02-17T04:54:37.521Z,74.92
2023-02-17T04:55:38.720Z,74.50
2023-02-17T04:56:39.993Z,74.49
2023-02-17T04:57:41.207Z,74.67
2023-02-17T04:58:42.426Z,75.21
2023-02-17T04:59:44.179Z,75.25
2023-02-17T05:00:49.457Z,75.38
2023-02-17T05:01:50.743Z,75.70
2023-02-17T05:02:52.316Z,75.66
2023-02-17T05:03:53.585Z,75.26
2023-02-17T05:04:54.887Z,75.95
2023-02-17T05:05:56.204Z,76.05
2023-02-17T05:06:57.481Z,76.05
2023-02-17T05:07:58.700Z,76.45
2023-02-17T05:08:59.913Z,76.53
2023-02-17T05:10:01.146Z,76.65
2023-02-17T05:11:02.403Z,76.72
2023-02-17T05:12:03.782Z,76.90
2023-02-17T05:13:04.988Z,77.19
2023-02-17T05:14:06.231Z,77.29
2023-02-17T05:15:08.098Z,77.39
2023-02-17T05:16:09.481Z,77.13
2023-02-17T05:17:10.914Z,77.39
2023-02-17T05:18:12.723Z,77.87
2023-02-17T05:19:14.036Z,78.23
2023-02-17T05:20:15.250Z,78.50
2023-02-17T05:21:16.464Z,78.81
2023-02-17T05:22:17.997Z,78.76
2023-02-17T05:23:19.271Z,79.04
2023-02-17T05:24:20.586Z,79.19
2023-02-17T05:25:21.854Z,79.78
2023-02-17T05:26:23.181Z,80.19
2023-02-17T05:27:24.709Z,79.79
2023-02-17T05:28:25.968Z,80.15
2023-02-17T05:29:27.205Z,80.24
2023-02-17T05:30:28.650Z,80.45
2023-02-17T05:31:29.976Z,80.23
2023-02-17T05:32:31.304Z,80.68
2023-02-17T05:33:32.766Z,80.62
2023-02-17T05:34:34.127Z,80.64
2023-02-17T05:35:35.785Z,81.20
2023-02-17T05:36:37.068Z,81.02
2023-02-17T05:37:38.332Z,81.05
2023-02-17T05:38:39.973Z,81.36
2023-02-17T05:39:41.245Z,81.30
2023-02-17T05:40:42.627Z,81.63
2023-02-17T05:41:43.983Z,81.37
2023-02-17T05:42:45.280Z,81.86
2023-02-17T05:43:46.920Z,81.71
2023-02-17T05:44:48.183Z,81.34
2023-02-17T05:45:49.405Z,81.05
2023-02-17T05:46:50.633Z,81.26
2023-02-17T05:47:51.991Z,81.18
2023-02-17T05:48:53.304Z,81.44
2023-02-17T05:49:54.647Z,80.95
2023-02-17T05:50:56.149Z,81.12
2023-02-17T05:51:57.426Z,81.27
2023-02-17T05:52:58.744Z,81.38
2023-02-17T05:54:00.084Z,81.46
2023-02-17T05:55:01.346Z,81.18
2023-02-17T05:56:02.593Z,81.20
2023-02-17T05:57:03.944Z,81.25
2023-02-17T05:58:05.297Z,81.39
2023-02-17T05:59:06.548Z,81.71
2023-02-17T06:00:08.144Z,81.76
2023-02-17T06:01:15.138Z,82.30
2023-02-17T06:02:16.424Z,82.06
2023-02-17T06:03:17.720Z,81.67
2023-02-17T06:04:19.035Z,82.11
2023-02-17T06:05:20.359Z,82.31
2023-02-17T06:06:21.815Z,82.45
2023-02-17T06:07:23.097Z,82.57
2023-02-17T06:08:24.396Z,82.90
2023-02-17T06:09:25.677Z,83.08
2023-02-17T06:10:26.946Z,83.13
2023-02-17T06:11:28.224Z,83.10
2023-02-17T06:12:29.560Z,83.18
2023-02-17T06:13:30.834Z,83.18
2023-02-17T06:14:32.211Z,83.02
2023-02-17T06:15:33.471Z,83.13
2023-02-17T06:16:34.813Z,83.27
2023-02-17T06:17:36.983Z,83.36
2023-02-17T06:18:38.204Z,83.32
2023-02-17T06:19:39.554Z,83.48
2023-02-17T06:20:40.863Z,83.71
2023-02-17T06:21:42.302Z,83.54
2023-02-17T06:22:43.661Z,83.63
2023-02-17T06:23:45.039Z,83.83
2023-02-17T06:24:46.605Z,83.70
2023-02-17T06:25:48.023Z,83.98
2023-02-17T06:26:49.287Z,83.91
2023-02-17T06:27:50.501Z,83.96
2023-02-17T06:28:51.730Z,84.43
2023-02-17T06:29:52.937Z,84.13
2023-02-17T06:30:54.161Z,84.64
2023-02-17T06:31:55.575Z,84.70
2023-02-17T06:32:56.864Z,85.15
2023-02-17T06:33:58.131Z,85.11
2023-02-17T06:34:59.389Z,85.17
2023-02-17T06:36:00.675Z,85.58
2023-02-17T06:37:01.926Z,85.67
2023-02-17T06:38:03.296Z,85.65
2023-02-17T06:39:04.616Z,85.81
2023-02-17T06:40:06.191Z,85.95
2023-02-17T06:41:07.428Z,86.00
2023-02-17T06:42:08.901Z,86.36
2023-02-17T06:43:10.228Z,86.42
2023-02-17T06:44:11.550Z,86.36
2023-02-17T06:45:12.903Z,86.50
2023-02-17T06:46:14.156Z,86.57
2023-02-17T06:47:15.369Z,86.74
2023-02-17T06:48:16.632Z,87.04
2023-02-17T06:49:17.934Z,86.93
2023-02-17T06:50:19.264Z,87.17
2023-02-17T06:51:20.550Z,87.41
2023-02-17T06:52:21.755Z,87.30
2023-02-17T06:53:22.983Z,87.79
2023-02-17T06:54:24.220Z,87.96
2023-02-17T06:55:25.561Z,88.02
2023-02-17T06:56:26.837Z,88.09
2023-02-17T06:57:28.198Z,88.23
2023-02-17T06:58:29.476Z,88.52
2023-02-17T06:59:31.900Z,88.67
2023-02-17T07:00:33.178Z,88.85
2023-02-17T07:01:34.423Z,88.73
2023-02-17T07:02:39.343Z,88.87
2023-02-17T07:03:40.606Z,89.08
2023-02-17T07:04:42.014Z,89.42
2023-02-17T07:05:43.318Z,89.81
2023-02-17T07:06:44.649Z,89.81
2023-02-17T07:07:45.982Z,89.66
2023-02-17T07:08:47.223Z,89.53
2023-02-17T07:09:48.472Z,89.58
2023-02-17T07:10:49.832Z,89.62
2023-02-17T07:11:51.086Z,89.33
2023-02-17T07:12:52.348Z,89.03
2023-02-17T07:13:53.587Z,88.82
2023-02-17T07:14:54.960Z,89.53
2023-02-17T07:15:56.447Z,89.23
2023-02-17T07:16:57.742Z,89.46
2023-02-17T07:17:59.091Z,88.97
2023-02-17T07:19:00.447Z,89.15
2023-02-17T07:20:01.700Z,89.24
2023-02-17T07:21:03.586Z,89.07
2023-02-17T07:22:04.862Z,88.79
2023-02-17T07:23:06.134Z,88.77
2023-02-17T07:24:07.433Z,88.54
2023-02-17T07:25:08.794Z,88.53
2023-02-17T07:26:10.999Z,88.62
2023-02-17T07:27:12.317Z,88.76
2023-02-17T07:28:13.882Z,88.88
2023-02-17T07:29:15.205Z,89.02
2023-02-17T07:30:16.694Z,89.15
2023-02-17T07:31:18.167Z,89.03
2023-02-17T07:32:19.521Z,88.79
2023-02-17T07:33:20.721Z,88.78
2023-02-17T07:34:21.981Z,89.08
2023-02-17T07:35:23.247Z,88.35
2023-02-17T07:36:24.608Z,88.74
2023-02-17T07:37:25.836Z,88.77
2023-02-17T07:38:27.091Z,88.04
2023-02-17T07:39:28.300Z,88.30
2023-02-17T07:40:29.606Z,88.47
2023-02-17T07:41:30.897Z,88.17
2023-02-17T07:42:32.176Z,88.11
2023-02-17T07:43:33.514Z,88.25
2023-02-17T07:44:34.888Z,88.49
2023-02-17T07:45:36.165Z,88.33
2023-02-17T07:46:37.774Z,88.71
2023-02-17T07:47:39.054Z,88.82
2023-02-17T07:48:40.464Z,88.74
2023-02-17T07:49:41.731Z,88.39
2023-02-17T07:50:43.067Z,88.60
2023-02-17T07:51:44.306Z,88.50
2023-02-17T07:52:45.514Z,88.41
2023-02-17T07:53:47.125Z,88.75
2023-02-17T07:54:48.410Z,88.70
2023-02-17T07:55:49.721Z,88.27
2023-02-17T07:56:50.977Z,88.98
2023-02-17T07:57:52.240Z,88.51
2023-02-17T07:58:53.486Z,88.68
2023-02-17T07:59:54.809Z,88.64
2023-02-17T08:00:56.073Z,88.85
2023-02-17T08:01:57.309Z,88.36
2023-02-17T08:02:58.614Z,88.32
2023-02-17T08:04:00.006Z,88.68
2023-02-17T08:05:01.262Z,89.02
2023-02-17T08:06:02.808Z,88.39
2023-02-17T08:07:04.022Z,88.17
2023-02-17T08:08:05.297Z,87.50
2023-02-17T08:09:06.569Z,87.91
2023-02-17T08:10:08.202Z,87.16
2023-02-17T08:11:13.613Z,86.86
2023-02-17T08:12:15.997Z,86.71
2023-02-17T08:13:17.261Z,86.69
2023-02-17T08:14:20.199Z,86.49
2023-02-17T08:15:21.487Z,86.48
2023-02-17T08:16:22.819Z,86.06
2023-02-17T08:17:24.145Z,86.44
2023-02-17T08:18:25.415Z,86.15
2023-02-17T08:19:31.698Z,85.44
2023-02-17T08:20:40.793Z,85.86
2023-02-17T08:21:42.047Z,85.93
2023-02-17T08:22:43.248Z,85.69
2023-02-17T08:23:45.464Z,85.59
2023-02-17T08:24:49.680Z,85.37
2023-02-17T08:25:50.926Z,85.31
2023-02-17T08:26:52.323Z,85.32
2023-02-17T08:27:53.779Z,85.60
2023-02-17T08:28:55.346Z,85.74
2023-02-17T08:29:56.726Z,85.87
2023-02-17T08:30:58.290Z,86.38
2023-02-17T08:31:59.717Z,86.00
2023-02-17T08:33:01.149Z,86.41
2023-02-17T08:34:03.765Z,86.60
2023-02-17T08:35:05.258Z,86.36
2023-02-17T08:36:07.553Z,86.30
2023-02-17T08:37:09.453Z,86.19
2023-02-17T08:38:10.913Z,86.58
2023-02-17T08:39:13.423Z,86.79
2023-02-17T08:40:14.999Z,86.52
2023-02-17T08:41:16.198Z,86.96
2023-02-17T08:42:17.428Z,86.16
2023-02-17T08:43:18.703Z,86.50
2023-02-17T08:44:19.988Z,86.61
2023-02-17T08:45:21.270Z,86.33
2023-02-17T08:46:23.054Z,86.30
2023-02-17T08:47:24.394Z,86.52
2023-02-17T08:48:25.635Z,86.45
2023-02-17T08:49:27.006Z,86.37
2023-02-17T08:50:28.325Z,86.17
2023-02-17T08:51:29.817Z,86.62
2023-02-17T08:52:31.304Z,86.15
2023-02-17T08:53:33.039Z,85.70
2023-02-17T08:54:34.500Z,85.41
2023-02-17T08:55:48.644Z,86.00
2023-02-17T08:56:50.367Z,85.99
2023-02-17T08:57:51.767Z,86.58
2023-02-17T08:58:53.532Z,86.44
2023-02-17T08:59:54.892Z,86.73
2023-02-17T09:00:56.181Z,86.81
2023-02-17T09:01:57.874Z,86.71
2023-02-17T09:02:59.304Z,87.08
2023-02-17T09:04:01.771Z,87.14
2023-02-17T09:05:04.736Z,87.08
2023-02-17T09:06:07.114Z,86.79
2023-02-17T09:07:09.624Z,87.26
2023-02-17T09:08:10.962Z,87.28
2023-02-17T09:09:13.252Z,87.84
2023-02-17T09:10:14.779Z,88.32
2023-02-17T09:11:16.770Z,88.05
2023-02-17T09:12:18.197Z,88.01
2023-02-17T09:13:19.483Z,88.24
2023-02-17T09:14:21.323Z,88.62
2023-02-17T09:15:22.715Z,88.34
2023-02-17T09:16:24.175Z,88.40
2023-02-17T09:17:25.673Z,88.45
2023-02-17T09:18:27.000Z,88.78
2023-02-17T09:19:28.252Z,88.75
2023-02-17T09:20:29.642Z,88.85
2023-02-17T09:21:36.792Z,89.19
2023-02-17T09:22:38.191Z,89.08
2023-02-17T09:23:39.954Z,88.99
2023-02-17T09:24:41.321Z,89.13
2023-02-17T09:25:42.667Z,88.62
2023-02-17T09:26:44.110Z,89.30
2023-02-17T09:27:45.383Z,89.24
2023-02-17T09:28:47.146Z,89.16
2023-02-17T09:29:48.404Z,88.60
2023-02-17T09:30:49.794Z,88.83
2023-02-17T09:31:51.233Z,88.65
2023-02-17T09:32:52.619Z,88.62
2023-02-17T09:33:59.587Z,88.36
2023-02-17T09:35:00.950Z,88.41
2023-02-17T09:36:02.227Z,87.94
2023-02-17T09:37:03.611Z,88.17
2023-02-17T09:38:06.079Z,88.35
2023-02-17T09:39:08.115Z,87.88
2023-02-17T09:40:17.020Z,87.93
2023-02-17T09:41:18.346Z,87.99
2023-02-17T09:42:21.232Z,87.72
2023-02-17T09:43:26.347Z,87.71
2023-02-17T09:44:42.421Z,87.89
2023-02-17T09:45:56.183Z,87.34
2023-02-17T09:47:02.788Z,87.12
2023-02-17T09:48:08.832Z,87.52
2023-02-17T09:49:19.885Z,87.46
2023-02-17T09:50:29.111Z,87.31
2023-02-17T09:51:35.190Z,86.83
2023-02-17T09:52:36.486Z,86.86
2023-02-17T09:53:40.929Z,87.16
2023-02-17T09:54:57.334Z,86.61
2023-02-17T09:56:01.551Z,86.73
2023-02-17T09:57:03.979Z,85.95
2023-02-17T09:58:17.974Z,85.81
2023-02-17T09:59:21.751Z,85.16
2023-02-17T10:00:29.451Z,85.33
2023-02-17T10:01:32.187Z,85.57
2023-02-17T10:02:38.560Z,85.74
2023-02-17T10:03:43.058Z,85.84
2023-02-17T10:04:46.325Z,85.86
2023-02-17T10:05:59.547Z,85.64
2023-02-17T10:07:03.968Z,85.32
2023-02-17T10:08:07.906Z,85.64
2023-02-17T10:09:22.596Z,85.42
2023-02-17T10:10:26.210Z,85.21
2023-02-17T10:11:35.986Z,84.64
2023-02-17T10:12:44.174Z,84.57
2023-02-17T10:13:46.176Z,84.69
2023-02-17T10:14:59.496Z,84.81
2023-02-17T10:16:04.858Z,83.69
2023-02-17T10:17:17.477Z,83.08
2023-02-17T10:18:27.979Z,83.00
2023-02-17T10:19:31.413Z,82.88
2023-02-17T10:20:34.260Z,82.22
2023-02-17T10:21:39.319Z,81.88
2023-02-17T10:22:43.514Z,82.00
2023-02-17T10:23:44.972Z,81.83
2023-02-17T10:24:46.317Z,81.55
2023-02-17T10:26:06.092Z,81.20
2023-02-17T10:27:27.842Z,81.40
2023-02-17T10:28:37.753Z,80.95
2023-02-17T10:29:39.089Z,81.08
2023-02-17T10:30:48.115Z,80.97
2023-02-17T10:31:49.442Z,80.49
2023-02-17T10:33:02.847Z,79.94
2023-02-17T10:34:09.897Z,79.83
2023-02-17T10:35:14.347Z,78.97
2023-02-17T10:36:33.506Z,78.35
2023-02-17T10:37:34.850Z,78.21
2023-02-17T10:38:44.230Z,78.32
2023-02-17T10:39:45.443Z,78.16
2023-02-17T10:40:47.594Z,77.96
2023-02-17T10:41:51.315Z,77.96
2023-02-17T10:42:55.333Z,78.68
2023-02-17T10:43:56.957Z,78.92
2023-02-17T10:45:00.310Z,79.26
2023-02-17T10:46:05.090Z,78.92
2023-02-17T10:47:06.567Z,79.12
2023-02-17T10:48:09.456Z,78.80
2023-02-17T10:49:16.628Z,79.65
2023-02-17T10:50:19.967Z,79.63
2023-02-17T10:51:23.302Z,79.77
2023-02-17T10:52:38.201Z,79.49
2023-02-17T10:53:42.317Z,79.92
2023-02-17T10:54:49.062Z,80.32
2023-02-17T10:55:56.811Z,80.07
2023-02-17T10:57:01.214Z,79.43
2023-02-17T10:58:11.189Z,79.49
2023-02-17T10:59:15.936Z,79.90
2023-02-17T11:01:36.407Z,80.16
2023-02-17T11:02:42.179Z,80.05
2023-02-17T11:03:43.516Z,80.31
2023-02-17T11:04:46.689Z,80.22
2023-02-17T11:06:01.997Z,80.15
2023-02-17T11:07:10.879Z,79.92
2023-02-17T11:08:31.038Z,79.83
2023-02-17T11:09:32.918Z,79.71
2023-02-17T11:10:40.039Z,79.75
2023-02-17T11:11:58.001Z,80.17
2023-02-17T11:13:00.000Z,80.59
2023-02-17T11:14:19.114Z,80.51
2023-02-17T11:15:23.166Z,80.48
2023-02-17T11:16:28.462Z,80.83
2023-02-17T11:17:38.230Z,80.27
2023-02-17T11:18:44.474Z,80.14
2023-02-17T11:19:56.726Z,80.18
2023-02-17T11:21:16.445Z,80.56
2023-02-17T11:22:30.525Z,80.45
2023-02-17T11:23:32.044Z,81.14
2023-02-17T11:24:34.763Z,81.03
2023-02-17T11:25:36.710Z,80.73
2023-02-17T11:26:38.087Z,81.02
2023-02-17T11:27:39.338Z,81.08
2023-02-17T11:28:40.674Z,81.17
2023-02-17T11:29:42.019Z,81.29
2023-02-17T11:30:49.571Z,82.34
2023-02-17T11:31:56.241Z,81.85
2023-02-17T11:32:57.777Z,81.38
2023-02-17T11:33:59.211Z,81.37
2023-02-17T11:35:00.559Z,81.78
2023-02-17T11:36:02.618Z,82.42
2023-02-17T11:37:13.106Z,82.63
2023-02-17T11:38:22.008Z,82.65
2023-02-17T11:39:23.295Z,82.34
2023-02-17T11:40:40.641Z,82.41
2023-02-17T11:41:42.744Z,82.44
2023-02-17T11:43:59.883Z,83.47
2023-02-17T11:45:18.945Z,82.70
2023-02-17T11:46:23.831Z,82.97
2023-02-17T11:47:27.630Z,82.11
2023-02-17T11:50:40.336Z,83.27
2023-02-17T11:51:43.097Z,83.97
2023-02-17T11:52:53.469Z,83.98
2023-02-17T11:54:00.472Z,83.55
2023-02-17T11:55:10.969Z,83.18
2023-02-17T11:56:16.557Z,83.31
2023-02-17T11:57:35.833Z,83.84
2023-02-17T11:58:42.678Z,83.70
2023-02-17T11:59:44.002Z,84.41
2023-02-17T12:00:55.627Z,84.72
2023-02-17T12:01:56.813Z,84.78
2023-02-17T12:03:21.142Z,84.96
2023-02-17T12:04:28.194Z,85.37
2023-02-17T12:05:40.154Z,85.52
2023-02-17T12:06:53.172Z,85.32
2023-02-17T12:08:00.687Z,85.40
2023-02-17T12:09:17.867Z,85.72
2023-02-17T12:10:37.685Z,85.96
2023-02-17T12:11:44.365Z,86.36
2023-02-17T12:13:04.566Z,86.06
2023-02-17T12:14:11.708Z,86.48
2023-02-17T12:15:23.982Z,86.12
2023-02-17T12:16:39.318Z,86.32
2023-02-17T12:17:48.858Z,86.22
2023-02-17T12:19:01.475Z,85.62
2023-02-17T12:20:20.662Z,86.08
2023-02-17T12:21:31.185Z,86.09
2023-02-17T12:22:36.270Z,85.55
2023-02-17T12:23:52.706Z,85.39
2023-02-17T12:25:12.906Z,85.32
2023-02-17T12:26:36.713Z,84.82
2023-02-17T12:28:05.493Z,83.89
2023-02-17T12:29:13.650Z,83.98
2023-02-17T12:30:15.015Z,84.32
2023-02-17T12:31:25.337Z,83.69
2023-02-17T12:32:39.381Z,83.20
2023-02-17T12:33:56.295Z,83.06
2023-02-17T12:34:59.772Z,83.14
2023-02-17T12:36:02.803Z,82.20
2023-02-17T12:37:05.922Z,82.04
2023-02-17T12:38:27.026Z,81.69
2023-02-17T12:39:34.971Z,81.54
2023-02-17T12:42:00.934Z,81.26
2023-02-17T12:43:13.006Z,81.43
2023-02-17T12:44:20.637Z,81.68
2023-02-17T12:45:30.290Z,81.66
2023-02-17T12:46:36.701Z,81.37
2023-02-17T12:47:49.850Z,81.34
2023-02-17T12:48:51.037Z,80.92
2023-02-17T12:50:04.026Z,80.82
2023-02-17T12:51:11.801Z,80.74
2023-02-17T12:52:15.603Z,80.45
2023-02-17T12:53:25.076Z,80.02
2023-02-17T12:54:41.406Z,79.68
2023-02-17T12:55:53.824Z,79.07
2023-02-17T12:56:55.060Z,79.65
2023-02-17T12:58:22.402Z,79.75
2023-02-17T12:59:31.512Z,80.03
2023-02-17T13:00:32.712Z,80.06
2023-02-17T13:01:34.072Z,79.57
2023-02-17T13:02:35.726Z,79.25
2023-02-17T13:03:37.213Z,79.34
2023-02-17T13:04:39.082Z,79.84
2023-02-17T13:05:44.600Z,79.10
2023-02-17T13:06:50.156Z,79.76
2023-02-17T13:07:57.795Z,79.08
2023-02-17T13:09:03.214Z,79.32
2023-02-17T13:10:05.301Z,79.00
2023-02-17T13:11:08.378Z,79.04
2023-02-17T13:12:15.691Z,79.19
2023-02-17T13:13:27.779Z,79.56
2023-02-17T13:14:39.224Z,79.67
2023-02-17T13:15:42.404Z,79.92
2023-02-17T13:16:44.782Z,79.62
2023-02-17T13:17:54.243Z,79.87
2023-02-17T13:18:55.478Z,79.99
2023-02-17T13:20:02.517Z,80.31
2023-02-17T13:21:18.426Z,79.93
2023-02-17T13:22:22.669Z,79.45
2023-02-17T13:23:38.526Z,79.74
2023-02-17T13:24:51.037Z,79.03
2023-02-17T13:26:01.362Z,79.23
2023-02-17T13:27:19.221Z,79.05
2023-02-17T13:28:37.258Z,78.50
2023-02-17T13:29:38.544Z,78.00
2023-02-17T13:30:41.101Z,78.00
2023-02-17T13:31:47.013Z,78.00
2023-02-17T13:32:59.686Z,77.15
2023-02-17T13:34:01.000Z,76.29
2023-02-17T13:35:05.203Z,76.19
2023-02-17T13:36:33.027Z,76.29
2023-02-17T13:37:34.336Z,75.89
2023-02-17T13:38:35.593Z,75.58
2023-02-17T13:39:37.414Z,76.37
2023-02-17T13:40:40.016Z,76.06
2023-02-17T13:41:46.537Z,76.10
2023-02-17T13:42:51.547Z,76.63
2023-02-17T13:43:52.761Z,76.18
2023-02-17T13:44:54.016Z,76.59
2023-02-17T13:46:04.889Z,76.62
2023-02-17T13:47:12.833Z,76.53
2023-02-17T13:48:25.416Z,76.96
2023-02-17T13:49:27.536Z,76.99